createdAt,value
2023-05-02T00:00:05.409Z,38.10
2023-05-02T00:01:05.341Z,38.07
2023-05-02T00:02:05.373Z,38.10
2023-05-02T00:03:05.491Z,38.11
2023-05-02T00:04:05.562Z,38.10
2023-05-02T00:05:05.465Z,38.08
2023-05-02T00:06:05.550Z,38.10
2023-05-02T00:07:05.534Z,38.08
2023-05-02T00:08:05.637Z,38.11
2023-05-02T00:09:05.645Z,38.09
2023-05-02T00:10:05.674Z,38.11
2023-05-02T00:11:05.766Z,38.10
2023-05-02T00:12:05.740Z,38.10
2023-05-02T00:13:05.818Z,38.10
2023-05-02T00:14:05.797Z,38.08
2023-05-02T00:15:05.860Z,38.08
2023-05-02T00:16:05.887Z,38.07
2023-05-02T00:17:06.010Z,38.11
2023-05-02T00:18:06.003Z,38.10
2023-05-02T00:19:06.228Z,38.07
2023-05-02T00:20:06.039Z,38.10
2023-05-02T00:21:06.072Z,38.06
2023-05-02T00:22:06.135Z,38.08
2023-05-02T00:23:06.170Z,38.09
2023-05-02T00:24:06.197Z,38.09
2023-05-02T00:25:06.212Z,38.09
2023-05-02T00:26:06.257Z,38.09
2023-05-02T00:27:06.371Z,38.08
2023-05-02T00:28:06.325Z,38.10
2023-05-02T00:29:06.370Z,38.09
2023-05-02T00:30:06.382Z,38.09
2023-05-02T00:31:06.425Z,38.07
2023-05-02T00:32:06.454Z,38.11
2023-05-02T00:33:06.502Z,38.08
2023-05-02T00:34:06.549Z,38.08
2023-05-02T00:35:06.587Z,38.10
2023-05-02T00:36:06.597Z,38.07
2023-05-02T00:37:06.618Z,38.08
2023-05-02T00:38:06.685Z,38.08
2023-05-02T00:39:06.705Z,38.08
2023-05-02T00:40:06.719Z,38.07
2023-05-02T00:41:06.750Z,38.07
2023-05-02T00:42:06.781Z,38.09
2023-05-02T00:43:06.825Z,38.09
2023-05-02T00:44:06.898Z,38.08
2023-05-02T00:45:07.083Z,38.08
2023-05-02T00:46:06.998Z,38.09
2023-05-02T00:47:06.967Z,38.07
2023-05-02T00:48:07.077Z,38.08
2023-05-02T00:49:07.019Z,38.09
2023-05-02T00:50:07.050Z,38.09
2023-05-02T00:51:07.143Z,38.07
2023-05-02T00:52:07.128Z,38.08
2023-05-02T00:53:07.163Z,38.08
2023-05-02T00:54:07.187Z,38.09
2023-05-02T00:55:07.221Z,38.08
2023-05-02T00:56:07.277Z,38.09
2023-05-02T00:57:07.292Z,38.08
2023-05-02T00:58:07.325Z,38.08
2023-05-02T00:59:07.369Z,38.08
2023-05-02T01:00:07.403Z,38.09
2023-05-02T01:01:07.499Z,38.08
2023-05-02T01:02:07.686Z,38.09
2023-05-02T01:03:07.770Z,38.11
2023-05-02T01:04:07.657Z,38.09
2023-05-02T01:05:07.625Z,38.08
2023-05-02T01:06:07.685Z,38.08
2023-05-02T01:07:07.646Z,38.09
2023-05-02T01:08:07.702Z,38.09
2023-05-02T01:09:07.725Z,38.10
2023-05-02T01:10:07.748Z,38.11
2023-05-02T01:11:07.825Z,38.08
2023-05-02T01:12:07.856Z,38.08
2023-05-02T01:13:07.895Z,38.10
2023-05-02T01:14:07.962Z,38.06
2023-05-02T01:15:07.952Z,38.08
2023-05-02T01:16:08.067Z,38.10
2023-05-02T01:17:08.045Z,38.07
2023-05-02T01:18:08.093Z,38.08
2023-05-02T01:19:08.256Z,38.09
2023-05-02T01:20:08.141Z,38.08
2023-05-02T01:21:08.194Z,38.08
2023-05-02T01:22:08.216Z,38.10
2023-05-02T01:23:08.278Z,38.11
2023-05-02T01:24:08.301Z,38.09
2023-05-02T01:25:08.389Z,38.08
2023-05-02T01:26:08.391Z,38.08
2023-05-02T01:27:08.418Z,38.09
2023-05-02T01:28:08.509Z,38.06
2023-05-02T01:29:08.526Z,38.08
2023-05-02T01:30:08.531Z,38.10
2023-05-02T01:31:08.629Z,38.09
2023-05-02T01:32:08.664Z,38.11
2023-05-02T01:33:08.717Z,38.10
2023-05-02T01:34:08.691Z,38.09
2023-05-02T01:35:08.736Z,38.08
2023-05-02T01:36:08.781Z,38.11
2023-05-02T01:37:08.815Z,38.09
2023-05-02T01:38:08.845Z,38.12
2023-05-02T01:39:08.881Z,38.10
2023-05-02T01:40:08.910Z,38.10
2023-05-02T01:41:08.954Z,38.11
2023-05-02T01:42:09.005Z,38.11
2023-05-02T01:43:09.026Z,38.07
2023-05-02T01:44:09.094Z,38.08
2023-05-02T01:45:09.105Z,38.09
2023-05-02T01:46:09.183Z,38.08
2023-05-02T01:47:09.391Z,38.10
2023-05-02T01:48:09.254Z,38.09
2023-05-02T01:49:09.340Z,38.10
2023-05-02T01:50:09.327Z,38.10
2023-05-02T01:51:09.349Z,38.08
2023-05-02T01:52:09.386Z,38.11
2023-05-02T01:53:09.435Z,38.08
2023-05-02T01:54:09.488Z,38.07
2023-05-02T01:55:09.520Z,38.09
2023-05-02T01:56:09.575Z,38.10
2023-05-02T01:57:09.615Z,38.08
2023-05-02T01:58:09.642Z,38.06
2023-05-02T01:59:09.684Z,38.08
2023-05-02T02:00:09.760Z,38.09
2023-05-02T02:01:09.817Z,38.10
2023-05-02T02:02:09.832Z,38.10
2023-05-02T02:03:09.873Z,38.08
2023-05-02T02:04:09.946Z,38.09
2023-05-02T02:05:09.927Z,38.12
2023-05-02T02:06:10.019Z,38.10
2023-05-02T02:07:10.014Z,38.12
2023-05-02T02:08:10.743Z,38.11
2023-05-02T02:09:10.128Z,38.10
2023-05-02T02:10:10.158Z,38.08
2023-05-02T02:11:10.188Z,38.10
2023-05-02T02:12:10.223Z,38.12
2023-05-02T02:13:10.270Z,38.10
2023-05-02T02:14:10.297Z,38.11
2023-05-02T02:15:10.330Z,38.09
2023-05-02T02:16:10.413Z,38.10
2023-05-02T02:17:10.452Z,38.10
2023-05-02T02:18:10.512Z,38.09
2023-05-02T02:19:10.514Z,38.12
2023-05-02T02:20:10.547Z,38.11
2023-05-02T02:21:10.595Z,38.09
2023-05-02T02:22:10.611Z,38.11
2023-05-02T02:23:10.667Z,38.11
2023-05-02T02:24:10.668Z,38.08
2023-05-02T02:25:10.718Z,38.09
2023-05-02T02:26:10.769Z,38.09
2023-05-02T02:27:10.822Z,38.11
2023-05-02T02:28:10.836Z,38.11
2023-05-02T02:29:10.888Z,38.10
2023-05-02T02:30:10.954Z,38.09
2023-05-02T02:31:11.092Z,38.10
2023-05-02T02:32:11.049Z,38.09
2023-05-02T02:33:11.079Z,38.10
2023-05-02T02:34:11.130Z,38.10
2023-05-02T02:35:11.163Z,38.12
2023-05-02T02:36:11.206Z,38.12
2023-05-02T02:37:11.233Z,38.12
2023-05-02T02:38:11.276Z,38.12
2023-05-02T02:39:11.346Z,38.12
2023-05-02T02:40:11.395Z,38.11
2023-05-02T02:41:11.441Z,38.12
2023-05-02T02:42:11.494Z,38.10
2023-05-02T02:43:11.565Z,38.10
2023-05-02T02:44:13.489Z,38.13
2023-05-02T02:45:11.649Z,38.11
2023-05-02T02:46:11.745Z,38.11
2023-05-02T02:47:11.712Z,38.11
2023-05-02T02:48:11.881Z,38.10
2023-05-02T02:49:11.809Z,38.14
2023-05-02T02:50:11.858Z,38.12
2023-05-02T02:51:11.891Z,38.11
2023-05-02T02:52:11.937Z,38.11
2023-05-02T02:53:12.011Z,38.11
2023-05-02T02:54:25.464Z,38.12
2023-05-02T02:55:13.030Z,38.14
2023-05-02T02:56:12.016Z,38.12
2023-05-02T02:57:12.000Z,38.13
2023-05-02T02:58:12.028Z,38.13
2023-05-02T02:59:11.998Z,38.13
2023-05-02T03:00:12.023Z,38.14
2023-05-02T03:01:12.011Z,38.13
2023-05-02T03:02:11.981Z,38.13
2023-05-02T03:03:12.078Z,38.13
2023-05-02T03:04:12.152Z,38.11
2023-05-02T03:05:11.981Z,38.12
2023-05-02T03:06:12.107Z,38.13
2023-05-02T03:07:12.005Z,38.15
2023-05-02T03:08:12.116Z,38.11
2023-05-02T03:09:12.107Z,38.15
2023-05-02T03:10:12.152Z,38.14
2023-05-02T03:11:12.211Z,38.13
2023-05-02T03:12:12.270Z,38.12
2023-05-02T03:13:12.323Z,38.13
2023-05-02T03:14:12.373Z,38.13
2023-05-02T03:15:12.376Z,38.14
2023-05-02T03:16:12.506Z,38.14
2023-05-02T03:17:12.467Z,38.15
2023-05-02T03:18:12.571Z,38.16
2023-05-02T03:19:12.560Z,38.10
2023-05-02T03:20:12.609Z,38.14
2023-05-02T03:21:12.638Z,38.15
2023-05-02T03:22:12.697Z,38.16
2023-05-02T03:23:12.723Z,38.13
2023-05-02T03:24:12.810Z,38.14
2023-05-02T03:25:12.844Z,38.15
2023-05-02T03:26:12.880Z,38.15
2023-05-02T03:27:12.944Z,38.14
2023-05-02T03:28:12.985Z,38.14
2023-05-02T03:29:13.038Z,38.14
2023-05-02T03:30:13.039Z,38.16
2023-05-02T03:31:13.166Z,38.15
2023-05-02T03:32:13.369Z,38.14
2023-05-02T03:33:13.248Z,38.14
2023-05-02T03:34:13.219Z,38.12
2023-05-02T03:35:13.267Z,38.14
2023-05-02T03:36:13.302Z,38.14
2023-05-02T03:37:13.376Z,38.15
2023-05-02T03:38:13.478Z,38.14
2023-05-02T03:39:13.478Z,38.14
2023-05-02T03:40:13.571Z,38.16
2023-05-02T03:41:13.535Z,38.13
2023-05-02T03:42:13.598Z,38.17
2023-05-02T03:43:13.641Z,38.15
2023-05-02T03:44:13.695Z,38.14
2023-05-02T03:45:13.699Z,38.14
2023-05-02T03:46:13.745Z,38.14
2023-05-02T03:47:13.911Z,38.14
2023-05-02T03:48:13.919Z,38.15
2023-05-02T03:49:13.908Z,38.15
2023-05-02T03:50:13.913Z,38.14
2023-05-02T03:51:13.961Z,38.16
2023-05-02T03:52:14.000Z,38.15
2023-05-02T03:53:14.036Z,38.15
2023-05-02T03:54:14.092Z,38.14
2023-05-02T03:55:14.147Z,38.15
2023-05-02T03:56:14.179Z,38.15
2023-05-02T03:57:14.233Z,38.15
2023-05-02T03:58:14.319Z,38.17
2023-05-02T03:59:14.342Z,38.14
2023-05-02T04:00:14.355Z,38.15
2023-05-02T04:01:14.398Z,38.15
2023-05-02T04:02:14.502Z,38.13
2023-05-02T04:03:14.496Z,38.16
2023-05-02T04:04:14.556Z,38.15
2023-05-02T04:05:14.630Z,38.14
2023-05-02T04:06:14.648Z,38.13
2023-05-02T04:07:14.640Z,38.14
2023-05-02T04:08:14.704Z,38.15
2023-05-02T04:09:14.744Z,38.14
2023-05-02T04:10:14.777Z,38.15
2023-05-02T04:11:14.892Z,38.15
2023-05-02T04:12:14.899Z,38.16
2023-05-02T04:13:14.910Z,38.15
2023-05-02T04:14:14.954Z,38.14
2023-05-02T04:15:14.993Z,38.14
2023-05-02T04:16:15.084Z,38.12
2023-05-02T04:17:15.148Z,38.14
2023-05-02T04:18:15.189Z,38.14
2023-05-02T04:19:15.192Z,38.12
2023-05-02T04:20:15.203Z,38.13
2023-05-02T04:21:15.277Z,38.14
2023-05-02T04:22:15.314Z,38.13
2023-05-02T04:23:15.352Z,38.13
2023-05-02T04:24:15.386Z,38.14
2023-05-02T04:25:15.422Z,38.14
2023-05-02T04:26:15.452Z,38.13
2023-05-02T04:27:15.608Z,38.11
2023-05-02T04:28:15.560Z,38.11
2023-05-02T04:29:15.590Z,38.13
2023-05-02T04:30:15.665Z,38.12
2023-05-02T04:31:15.743Z,38.16
2023-05-02T04:32:15.736Z,38.13
2023-05-02T04:33:15.794Z,38.11
2023-05-02T04:34:15.804Z,38.11
2023-05-02T04:35:15.834Z,38.14
2023-05-02T04:36:15.896Z,38.12
2023-05-02T04:37:16.226Z,38.11
2023-05-02T04:38:16.018Z,38.13
2023-05-02T04:39:16.003Z,38.13
2023-05-02T04:40:16.029Z,38.11
2023-05-02T04:41:16.096Z,38.12
2023-05-02T04:42:16.122Z,38.13
2023-05-02T04:43:16.172Z,38.11
2023-05-02T04:44:16.202Z,38.11
2023-05-02T04:45:16.227Z,38.14
2023-05-02T04:46:16.299Z,38.11
2023-05-02T04:47:16.370Z,38.13
2023-05-02T04:48:18.343Z,38.13
2023-05-02T04:49:16.416Z,38.12
2023-05-02T04:50:16.479Z,38.13
2023-05-02T04:51:17.234Z,38.12
2023-05-02T04:52:16.538Z,38.09
2023-05-02T04:53:16.563Z,38.13
2023-05-02T04:54:16.650Z,38.12
2023-05-02T04:55:16.645Z,38.10
2023-05-02T04:56:16.697Z,38.13
2023-05-02T04:57:16.730Z,38.11
2023-05-02T04:58:16.767Z,38.13
2023-05-02T04:59:16.833Z,38.12
2023-05-02T05:00:16.862Z,38.10
2023-05-02T05:01:17.029Z,38.11
2023-05-02T05:02:17.288Z,38.11
2023-05-02T05:03:17.074Z,38.10
2023-05-02T05:04:17.299Z,38.09
2023-05-02T05:05:17.099Z,38.10
2023-05-02T05:06:17.177Z,38.10
2023-05-02T05:07:17.170Z,38.12
2023-05-02T05:08:17.250Z,38.12
2023-05-02T05:09:17.276Z,38.10
2023-05-02T05:10:17.294Z,38.10
2023-05-02T05:11:17.329Z,38.11
2023-05-02T05:12:17.415Z,38.11
2023-05-02T05:13:17.454Z,38.10
2023-05-02T05:14:17.463Z,38.11
2023-05-02T05:15:17.508Z,38.10
2023-05-02T05:16:17.586Z,38.10
2023-05-02T05:17:17.634Z,38.10
2023-05-02T05:18:17.659Z,38.10
2023-05-02T05:19:17.730Z,38.10
2023-05-02T05:20:17.733Z,38.09
2023-05-02T05:21:17.781Z,38.10
2023-05-02T05:22:17.837Z,38.08
2023-05-02T05:23:17.951Z,38.10
2023-05-02T05:24:18.943Z,38.10
2023-05-02T05:25:17.999Z,38.09
2023-05-02T05:26:18.877Z,38.12
2023-05-02T05:27:18.318Z,38.12
2023-05-02T05:28:18.124Z,38.10
2023-05-02T05:29:18.531Z,38.08
2023-05-02T05:30:18.844Z,38.11
2023-05-02T05:31:18.477Z,38.09
2023-05-02T05:32:18.289Z,38.08
2023-05-02T05:33:18.564Z,38.09
2023-05-02T05:34:18.484Z,38.25
2023-05-02T05:35:18.913Z,38.22
2023-05-02T05:36:18.664Z,38.80
2023-05-02T05:37:18.892Z,39.43
2023-05-02T05:38:18.672Z,40.07
2023-05-02T05:39:18.642Z,40.39
2023-05-02T05:40:18.686Z,40.45
2023-05-02T05:41:18.692Z,40.85
2023-05-02T05:42:18.738Z,41.17
2023-05-02T05:43:18.774Z,41.05
2023-05-02T05:44:18.773Z,41.40
2023-05-02T05:45:19.320Z,41.09
2023-05-02T05:46:18.837Z,41.25
2023-05-02T05:47:18.909Z,41.13
2023-05-02T05:48:18.940Z,40.97
2023-05-02T05:49:18.882Z,40.97
2023-05-02T05:50:19.833Z,40.86
2023-05-02T05:51:19.833Z,40.92
2023-05-02T05:52:18.941Z,40.85
2023-05-02T05:53:18.929Z,40.84
2023-05-02T05:54:19.326Z,40.81
2023-05-02T05:55:19.867Z,40.76
2023-05-02T05:56:19.003Z,40.84
2023-05-02T05:57:19.319Z,40.76
2023-05-02T05:58:18.998Z,40.77
2023-05-02T05:59:19.025Z,40.80
2023-05-02T06:00:19.093Z,40.84
2023-05-02T06:01:19.024Z,40.77
2023-05-02T06:02:19.065Z,40.76
2023-05-02T06:03:19.137Z,40.86
2023-05-02T06:04:19.068Z,40.79
2023-05-02T06:05:19.031Z,40.84
2023-05-02T06:06:19.075Z,40.83
2023-05-02T06:07:19.050Z,40.86
2023-05-02T06:08:19.020Z,40.85
2023-05-02T06:09:19.028Z,40.83
2023-05-02T06:10:19.054Z,40.70
2023-05-02T06:11:19.028Z,40.78
2023-05-02T06:12:19.101Z,40.87
2023-05-02T06:13:19.082Z,40.89
2023-05-02T06:14:19.044Z,40.95
2023-05-02T06:15:19.030Z,40.84
2023-05-02T06:16:19.056Z,40.79
2023-05-02T06:17:19.011Z,40.86
2023-05-02T06:18:19.003Z,40.51
2023-05-02T06:19:19.040Z,40.46
2023-05-02T06:20:19.048Z,40.38
2023-05-02T06:21:19.077Z,40.33
2023-05-02T06:22:19.019Z,40.36
2023-05-02T06:23:19.047Z,40.31
2023-05-02T06:24:19.034Z,40.22
2023-05-02T06:25:19.057Z,40.15
2023-05-02T06:26:19.032Z,40.14
2023-05-02T06:27:19.055Z,40.05
2023-05-02T06:28:19.051Z,39.94
2023-05-02T06:29:19.026Z,39.98
2023-05-02T06:30:19.057Z,39.90
2023-05-02T06:31:19.047Z,39.86
2023-05-02T06:32:19.034Z,39.81
2023-05-02T06:33:19.069Z,39.84
2023-05-02T06:34:19.006Z,39.86
2023-05-02T06:35:19.084Z,39.86
2023-05-02T06:36:19.070Z,39.98
2023-05-02T06:37:19.370Z,39.92
2023-05-02T06:38:19.093Z,40.07
2023-05-02T06:39:19.099Z,40.13
2023-05-02T06:40:19.117Z,40.11
2023-05-02T06:41:19.133Z,40.16
2023-05-02T06:42:19.224Z,40.39
2023-05-02T06:43:19.190Z,40.23
2023-05-02T06:44:19.255Z,40.07
2023-05-02T06:45:19.280Z,40.19
2023-05-02T06:46:19.336Z,40.24
2023-05-02T06:47:19.382Z,40.65
2023-05-02T06:48:19.423Z,40.52
2023-05-02T06:49:19.433Z,40.67
2023-05-02T06:50:19.458Z,40.76
2023-05-02T06:51:19.522Z,41.13
2023-05-02T06:52:19.742Z,41.10
2023-05-02T06:53:19.599Z,41.08
2023-05-02T06:54:19.715Z,41.40
2023-05-02T06:55:19.753Z,41.16
2023-05-02T06:56:19.792Z,41.52
2023-05-02T06:57:19.851Z,41.39
2023-05-02T06:58:19.914Z,41.48
2023-05-02T06:59:19.980Z,41.60
2023-05-02T07:00:20.042Z,41.64
2023-05-02T07:01:20.115Z,41.92
2023-05-02T07:02:20.135Z,42.05
2023-05-02T07:03:20.185Z,42.08
2023-05-02T07:04:20.305Z,42.00
2023-05-02T07:05:20.364Z,41.96
2023-05-02T07:06:20.391Z,41.90
2023-05-02T07:07:20.356Z,42.09
2023-05-02T07:08:20.452Z,42.12
2023-05-02T07:09:20.517Z,42.33
2023-05-02T07:10:20.487Z,42.63
2023-05-02T07:11:20.639Z,42.64
2023-05-02T07:12:20.596Z,42.32
2023-05-02T07:13:20.916Z,42.49
2023-05-02T07:14:20.666Z,42.75
2023-05-02T07:15:20.724Z,42.90
2023-05-02T07:16:20.822Z,42.88
2023-05-02T07:17:20.820Z,43.08
2023-05-02T07:18:20.911Z,43.03
2023-05-02T07:19:20.917Z,43.04
2023-05-02T07:20:20.990Z,42.78
2023-05-02T07:21:21.046Z,42.88
2023-05-02T07:22:21.087Z,42.89
2023-05-02T07:23:21.095Z,42.86
2023-05-02T07:24:21.274Z,43.30
2023-05-02T07:25:21.263Z,42.88
2023-05-02T07:26:21.203Z,42.66
2023-05-02T07:27:21.274Z,42.79
2023-05-02T07:28:21.296Z,42.87
2023-05-02T07:29:21.306Z,43.33
2023-05-02T07:30:21.395Z,43.28
2023-05-02T07:31:21.419Z,43.16
2023-05-02T07:32:21.694Z,43.00
2023-05-02T07:33:21.531Z,43.05
2023-05-02T07:34:21.585Z,43.51
2023-05-02T07:35:21.914Z,43.20
2023-05-02T07:36:21.509Z,43.11
2023-05-02T07:37:21.583Z,43.05
2023-05-02T07:38:21.533Z,43.30
2023-05-02T07:39:21.489Z,43.76
2023-05-02T07:40:21.894Z,43.68
2023-05-02T07:41:21.536Z,43.78
2023-05-02T07:42:21.487Z,43.95
2023-05-02T07:43:21.570Z,43.87
2023-05-02T07:44:21.456Z,43.84
2023-05-02T07:45:21.511Z,43.88
2023-05-02T07:46:21.635Z,43.79
2023-05-02T07:47:21.627Z,43.74
2023-05-02T07:48:21.624Z,43.91
2023-05-02T07:49:21.645Z,44.04
2023-05-02T07:50:21.680Z,44.55
2023-05-02T07:51:21.759Z,44.20
2023-05-02T07:52:21.757Z,44.47
2023-05-02T07:53:21.792Z,44.62
2023-05-02T07:54:21.831Z,44.64
2023-05-02T07:55:22.935Z,44.65
2023-05-02T07:56:21.915Z,44.74
2023-05-02T07:57:22.058Z,44.66
2023-05-02T07:58:22.028Z,44.83
2023-05-02T07:59:22.038Z,44.63
2023-05-02T08:00:22.063Z,44.80
2023-05-02T08:01:22.113Z,44.72
2023-05-02T08:02:22.234Z,44.65
2023-05-02T08:03:22.359Z,44.67
2023-05-02T08:04:22.282Z,45.01
2023-05-02T08:05:22.283Z,44.95
2023-05-02T08:06:22.311Z,44.94
2023-05-02T08:07:22.312Z,44.72
2023-05-02T08:08:22.361Z,44.81
2023-05-02T08:09:22.391Z,44.86
2023-05-02T08:10:22.418Z,44.71
2023-05-02T08:11:23.355Z,44.69
2023-05-02T08:12:22.508Z,44.66
2023-05-02T08:13:22.560Z,44.55
2023-05-02T08:14:22.612Z,44.23
2023-05-02T08:15:22.879Z,44.16
2023-05-02T08:16:22.815Z,44.33
2023-05-02T08:17:22.752Z,44.36
2023-05-02T08:18:22.755Z,44.34
2023-05-02T08:19:22.813Z,44.17
2023-05-02T08:20:22.952Z,44.09
2023-05-02T08:21:22.927Z,44.03
2023-05-02T08:22:22.972Z,44.16
2023-05-02T08:23:23.000Z,43.99
2023-05-02T08:24:23.034Z,43.81
2023-05-02T08:25:23.090Z,43.62
2023-05-02T08:26:23.123Z,43.55
2023-05-02T08:27:23.168Z,43.55
2023-05-02T08:28:23.405Z,43.58
2023-05-02T08:29:23.282Z,43.64
2023-05-02T08:30:23.438Z,43.64
2023-05-02T08:31:23.459Z,43.64
2023-05-02T08:32:23.452Z,43.53
2023-05-02T08:33:23.564Z,43.54
2023-05-02T08:34:23.559Z,43.62
2023-05-02T08:35:23.602Z,43.65
2023-05-02T08:36:23.663Z,43.66
2023-05-02T08:37:23.728Z,43.66
2023-05-02T08:38:23.889Z,43.69
2023-05-02T08:39:24.371Z,43.97
2023-05-02T08:40:37.767Z,43.79
2023-05-02T08:41:24.921Z,43.55
2023-05-02T08:42:24.912Z,43.60
2023-05-02T08:43:23.914Z,43.69
2023-05-02T08:44:23.880Z,43.87
2023-05-02T08:45:23.873Z,44.40
2023-05-02T08:46:24.023Z,43.93
2023-05-02T08:47:23.983Z,44.01
2023-05-02T08:48:23.855Z,44.03
2023-05-02T08:49:23.879Z,44.15
2023-05-02T08:50:23.924Z,44.16
2023-05-02T08:51:24.070Z,44.30
2023-05-02T08:52:23.966Z,44.34
2023-05-02T08:53:24.014Z,43.91
2023-05-02T08:54:24.052Z,43.78
2023-05-02T08:55:24.027Z,43.75
2023-05-02T08:56:24.016Z,43.92
2023-05-02T08:57:24.098Z,44.30
2023-05-02T08:58:24.035Z,44.11
2023-05-02T08:59:24.039Z,43.79
2023-05-02T09:00:24.010Z,43.95
2023-05-02T09:01:24.050Z,43.86
2023-05-02T09:02:24.952Z,43.81
2023-05-02T09:03:24.059Z,44.00
2023-05-02T09:04:24.038Z,43.44
2023-05-02T09:05:24.013Z,43.36
2023-05-02T09:06:24.055Z,43.64
2023-05-02T09:07:24.033Z,43.72
2023-05-02T09:08:24.023Z,43.77
2023-05-02T09:09:24.014Z,43.47
2023-05-02T09:10:24.016Z,43.51
2023-05-02T09:11:24.023Z,43.04
2023-05-02T09:12:24.014Z,42.84
2023-05-02T09:13:24.194Z,42.97
2023-05-02T09:14:24.069Z,42.88
2023-05-02T09:15:24.035Z,42.56
2023-05-02T09:16:24.157Z,42.87
2023-05-02T09:17:24.059Z,43.03
2023-05-02T09:18:24.059Z,42.83
2023-05-02T09:19:24.055Z,42.75
2023-05-02T09:20:24.081Z,42.25
2023-05-02T09:21:24.084Z,42.41
2023-05-02T09:22:24.111Z,42.23
2023-05-02T09:23:24.103Z,42.25
2023-05-02T09:24:24.138Z,42.30
2023-05-02T09:25:24.139Z,42.26
2023-05-02T09:26:24.256Z,41.89
2023-05-02T09:27:24.176Z,42.40
2023-05-02T09:28:24.169Z,41.60
2023-05-02T09:29:24.225Z,41.29
2023-05-02T09:30:24.275Z,41.30
2023-05-02T09:31:43.292Z,41.38
2023-05-02T09:32:25.240Z,41.79
2023-05-02T09:33:24.229Z,42.09
2023-05-02T09:34:24.951Z,42.25
2023-05-02T09:35:24.267Z,42.28
2023-05-02T09:36:24.219Z,42.40
2023-05-02T09:37:24.200Z,42.52
2023-05-02T09:38:24.453Z,42.50
2023-05-02T09:39:25.894Z,42.65
2023-05-02T09:40:24.164Z,42.71
2023-05-02T09:41:24.413Z,42.64
2023-05-02T09:42:24.200Z,42.57
2023-05-02T09:43:24.426Z,42.93
2023-05-02T09:44:24.152Z,42.71
2023-05-02T09:45:24.515Z,42.79
2023-05-02T09:46:24.315Z,42.68
2023-05-02T09:47:24.324Z,42.72
2023-05-02T09:48:24.348Z,42.76
2023-05-02T09:49:24.457Z,42.60
2023-05-02T09:50:24.568Z,42.60
2023-05-02T09:51:24.553Z,42.52
2023-05-02T09:52:24.558Z,42.40
2023-05-02T09:53:24.617Z,42.20
2023-05-02T09:54:24.729Z,42.22
2023-05-02T09:55:24.792Z,42.28
2023-05-02T09:56:26.137Z,42.49
2023-05-02T09:57:24.822Z,42.50
2023-05-02T09:58:24.886Z,42.77
2023-05-02T09:59:24.925Z,42.71
2023-05-02T10:00:24.986Z,42.71
2023-05-02T10:01:25.076Z,42.77
2023-05-02T10:02:25.093Z,42.73
2023-05-02T10:03:25.100Z,42.92
2023-05-02T10:04:25.194Z,42.74
2023-05-02T10:05:25.198Z,42.98
2023-05-02T10:06:25.258Z,42.93
2023-05-02T10:07:25.270Z,42.98
2023-05-02T10:08:25.303Z,43.25
2023-05-02T10:09:25.328Z,43.19
2023-05-02T10:10:25.376Z,43.07
2023-05-02T10:11:25.489Z,43.21
2023-05-02T10:12:25.449Z,43.28
2023-05-02T10:13:25.484Z,43.19
2023-05-02T10:14:27.098Z,43.30
2023-05-02T10:15:25.530Z,43.14
2023-05-02T10:16:25.590Z,43.02
2023-05-02T10:17:25.542Z,43.15
2023-05-02T10:18:25.519Z,42.64
2023-05-02T10:19:25.471Z,41.96
2023-05-02T10:20:26.896Z,42.38
2023-05-02T10:21:25.538Z,42.38
2023-05-02T10:22:25.447Z,42.43
2023-05-02T10:23:25.464Z,42.27
2023-05-02T10:24:25.441Z,42.29
2023-05-02T10:25:25.452Z,41.97
2023-05-02T10:26:25.954Z,42.05
2023-05-02T10:27:25.542Z,42.16
2023-05-02T10:28:25.957Z,41.99
2023-05-02T10:29:25.424Z,42.04
2023-05-02T10:30:25.413Z,42.39
2023-05-02T10:31:25.569Z,42.62
2023-05-02T10:32:25.433Z,42.59
2023-05-02T10:33:25.380Z,42.41
2023-05-02T10:34:25.446Z,42.25
2023-05-02T10:35:25.363Z,41.54
2023-05-02T10:36:25.362Z,41.92
2023-05-02T10:37:25.348Z,41.71
2023-05-02T10:38:25.405Z,41.63
2023-05-02T10:39:25.341Z,41.62
2023-05-02T10:40:25.395Z,41.48
2023-05-02T10:41:25.476Z,41.36
2023-05-02T10:42:25.498Z,41.34
2023-05-02T10:43:25.589Z,41.15
2023-05-02T10:44:26.711Z,41.12
2023-05-02T10:45:25.695Z,41.10
2023-05-02T10:46:25.781Z,41.15
2023-05-02T10:47:25.825Z,41.08
2023-05-02T10:48:25.947Z,41.03
2023-05-02T10:49:26.057Z,41.03
2023-05-02T10:50:26.531Z,40.97
2023-05-02T10:51:26.113Z,40.93
2023-05-02T10:52:26.102Z,40.86
2023-05-02T10:53:26.116Z,40.74
2023-05-02T10:54:26.201Z,40.75
2023-05-02T10:55:26.220Z,40.72
2023-05-02T10:56:28.442Z,40.62
2023-05-02T10:57:26.221Z,40.53
2023-05-02T10:58:26.260Z,40.41
2023-05-02T10:59:26.204Z,40.45
2023-05-02T11:00:26.232Z,40.29
2023-05-02T11:01:26.299Z,40.28
2023-05-02T11:02:26.301Z,40.26
2023-05-02T11:03:26.239Z,40.25
2023-05-02T11:04:26.189Z,40.23
2023-05-02T11:05:26.186Z,40.23
2023-05-02T11:06:26.209Z,40.10
2023-05-02T11:07:26.176Z,40.08
2023-05-02T11:08:26.199Z,39.92
2023-05-02T11:09:26.161Z,39.92
2023-05-02T11:10:26.160Z,39.93
2023-05-02T11:11:26.130Z,39.73
2023-05-02T11:12:26.947Z,39.41
2023-05-02T11:13:26.126Z,39.59
2023-05-02T11:14:26.189Z,39.55
2023-05-02T11:15:26.123Z,39.60
2023-05-02T11:16:26.483Z,39.53
2023-05-02T11:17:26.122Z,39.40
2023-05-02T11:18:26.107Z,39.52
2023-05-02T11:19:26.147Z,39.88
2023-05-02T11:20:26.059Z,39.96
2023-05-02T11:21:26.105Z,40.46
2023-05-02T11:22:26.052Z,40.82
2023-05-02T11:23:26.240Z,40.57
2023-05-02T11:24:26.042Z,40.48
2023-05-02T11:25:26.056Z,40.42
2023-05-02T11:26:26.014Z,40.35
2023-05-02T11:27:26.011Z,40.32
2023-05-02T11:28:25.991Z,40.27
2023-05-02T11:29:26.029Z,40.05
2023-05-02T11:30:25.986Z,39.94
2023-05-02T11:31:26.054Z,39.93
2023-05-02T11:32:26.160Z,39.74
2023-05-02T11:33:25.959Z,39.72
2023-05-02T11:34:25.960Z,39.57
2023-05-02T11:35:25.950Z,39.48
2023-05-02T11:36:25.951Z,39.40
2023-05-02T11:37:25.921Z,39.49
2023-05-02T11:38:25.928Z,39.33
2023-05-02T11:39:25.934Z,39.39
2023-05-02T11:40:25.895Z,39.25
2023-05-02T11:41:25.917Z,39.35
2023-05-02T11:42:25.897Z,39.29
2023-05-02T11:43:25.932Z,39.28
2023-05-02T11:44:25.907Z,39.22
2023-05-02T11:45:25.875Z,39.17
2023-05-02T11:46:25.989Z,39.18
2023-05-02T11:47:25.954Z,39.15
2023-05-02T11:48:25.969Z,39.33
2023-05-02T11:49:25.856Z,39.22
2023-05-02T11:50:25.856Z,39.06
2023-05-02T11:51:25.890Z,39.12
2023-05-02T11:52:25.825Z,39.18
2023-05-02T11:53:25.839Z,39.26
2023-05-02T11:54:25.810Z,39.16
2023-05-02T11:55:25.809Z,39.23
2023-05-02T11:56:25.811Z,39.19
2023-05-02T11:57:25.773Z,39.02
2023-05-02T11:58:25.794Z,39.04
2023-05-02T11:59:26.471Z,39.10
2023-05-02T12:00:25.764Z,39.03
2023-05-02T12:01:25.764Z,39.09
2023-05-02T12:02:25.851Z,39.00
2023-05-02T12:03:26.098Z,39.05
2023-05-02T12:04:25.868Z,39.10
2023-05-02T12:05:25.797Z,39.14
2023-05-02T12:06:25.762Z,39.21
2023-05-02T12:07:25.717Z,39.16
2023-05-02T12:08:25.960Z,39.11
2023-05-02T12:09:25.721Z,39.16
2023-05-02T12:10:25.706Z,39.02
2023-05-02T12:11:25.679Z,39.05
2023-05-02T12:12:25.702Z,39.01
2023-05-02T12:13:25.697Z,39.03
2023-05-02T12:14:25.668Z,38.97
2023-05-02T12:15:25.682Z,38.86
2023-05-02T12:16:25.702Z,38.94
2023-05-02T12:17:25.664Z,38.84
2023-05-02T12:18:25.964Z,38.69
2023-05-02T12:19:25.662Z,38.73
2023-05-02T12:20:25.694Z,38.58
2023-05-02T12:21:25.654Z,38.62
2023-05-02T12:22:25.617Z,38.61
2023-05-02T12:23:25.641Z,38.63
2023-05-02T12:24:25.691Z,38.69
2023-05-02T12:25:25.579Z,39.21
2023-05-02T12:26:25.757Z,39.13
2023-05-02T12:27:26.472Z,39.74
2023-05-02T12:28:25.577Z,40.76
2023-05-02T12:29:25.575Z,41.88
2023-05-02T12:30:25.605Z,42.75
2023-05-02T12:31:25.667Z,43.20
2023-05-02T12:32:27.487Z,43.06
2023-05-02T12:33:25.576Z,43.37
2023-05-02T12:34:25.531Z,43.84
2023-05-02T12:35:25.519Z,43.58
2023-05-02T12:36:25.534Z,43.64
2023-05-02T12:37:25.491Z,43.31
2023-05-02T12:38:25.976Z,43.44
2023-05-02T12:39:25.646Z,43.38
2023-05-02T12:40:25.629Z,43.63
2023-05-02T12:41:25.670Z,43.66
2023-05-02T12:42:25.695Z,43.66
2023-05-02T12:43:25.744Z,43.64
2023-05-02T12:44:25.808Z,42.66
2023-05-02T12:45:25.837Z,43.62
2023-05-02T12:46:25.923Z,43.82
2023-05-02T12:47:25.978Z,43.90
2023-05-02T12:48:25.931Z,43.74
2023-05-02T12:49:25.974Z,44.14
2023-05-02T12:50:26.030Z,44.25
2023-05-02T12:51:26.063Z,44.52
2023-05-02T12:52:26.114Z,44.63